This is the latest recevied weather packets stored in our database for station/object OE5MIL-13. If no packets are shown the sender has not sent any weather packets the latest 1 day(s).
| Time | Temp. | Humidity | Pressure | Rain* | Wind** | Luminosity | Snow |
|---|---|---|---|---|---|---|---|
| 1836274254 | 6.11° C | 100% | 0 hPa | 0 mm | 0 m/s | - | - |
| 1778022226 | 3.33° C | 100% | 0 hPa | 0 mm | 0.89 m/s, 296° | - | - |
| 1778021025 | 3.89° C | 100% | 0 hPa | 0 mm | 0 m/s | - | - |
| 1778019824 | 5.56° C | 100% | 0 hPa | 0 mm | 0.89 m/s, 250° | - | - |
| 1778018623 | 5.56° C | 100% | 0 hPa | 0 mm | 1.34 m/s, 188° | - | - |
| 1778017421 | 5° C | 100% | 0 hPa | 0 mm | 0 m/s | - | - |
| 1778016220 | 5° C | 100% | 0 hPa | 0 mm | 0 m/s | - | - |
| 1778015019 | 6.11° C | 100% | 0 hPa | 0 mm | 0 m/s | - | - |
| 1778013818 | 6.11° C | 100% | 0 hPa | 0 mm | 0 m/s | - | - |
| 1778012617 | 6.11° C | 100% | 0 hPa | 0 mm | 0.45 m/s, 195° | - | - |
| 1778011416 | 5° C | 100% | 0 hPa | 0 mm | 0 m/s | - | - |
| 1778010215 | 6.11° C | 100% | 0 hPa | 0 mm | 0.89 m/s, 113° | - | - |
| 1778009013 | 7.22° C | 100% | 0 hPa | 0 mm | 0 m/s | - | - |
| 1778007812 | 7.22° C | 100% | 0 hPa | 0 mm | 0 m/s | - | - |
| 1778006611 | 7.78° C | 100% | 0 hPa | 0 mm | 0 m/s | - | - |
| 1778004209 | 10° C | 100% | 0 hPa | 0 mm | 0 m/s | - | - |
| 1778003008 | 10° C | 100% | 0 hPa | 0 mm | 1.79 m/s, 317° | - | - |
| 1778001807 | 11.11° C | 100% | 0 hPa | 0 mm | 2.68 m/s, 260° | - | - |
| 1778000605 | 9.44° C | 100% | 0 hPa | 0 mm | 0.45 m/s, 115° | - | - |
| 1777999404 | 8.89° C | 100% | 0 hPa | 0 mm | 1.79 m/s, 248° | - | - |
| 1777998203 | 10° C | 100% | 0 hPa | 0 mm | 1.79 m/s, 217° | - | - |
| 1777997002 | 10.56° C | 100% | 0 hPa | 0 mm | 1.79 m/s, 85° | - | - |
| 1777995801 | 12.78° C | 100% | 0 hPa | 0 mm | 4.02 m/s, 164° | - | - |
| 1777994600 | 14.44° C | 100% | 0 hPa | 0 mm | 8.05 m/s, 160° | - | - |
| 1777993399 | 14.44° C | 100% | 0 hPa | 0 mm | 1.79 m/s, 57° | - | - |
* Rain latest hour (hover to see other rain measurements)
** Current wind speed in m/s (hover to see current wind gust speed)